createdAt,value
2022-08-05T00:00:17.023Z,82.53
2022-08-05T00:03:06.945Z,82.63
2022-08-05T00:06:05.122Z,82.95
2022-08-05T00:08:34.455Z,83.16
2022-08-05T00:11:28.003Z,83.01
2022-08-05T00:13:57.797Z,82.91
2022-08-05T00:16:35.953Z,82.92
2022-08-05T00:19:04.339Z,83.13
2022-08-05T00:21:31.679Z,82.81
2022-08-05T00:24:10.088Z,82.67
2022-08-05T00:26:38.939Z,81.93
2022-08-05T00:29:13.692Z,82.23
2022-08-05T00:31:53.737Z,81.17
2022-08-05T00:34:53.878Z,80.39
2022-08-05T00:37:15.587Z,80.26
2022-08-05T00:39:57.143Z,79.71
2022-08-05T00:42:33.500Z,79.86
2022-08-05T00:45:00.753Z,78.84
2022-08-05T00:47:31.761Z,78.98
2022-08-05T00:50:16.610Z,78.57
2022-08-05T00:52:45.452Z,78.66
2022-08-05T00:55:13.940Z,78.57
2022-08-05T00:57:58.045Z,78.40
2022-08-05T01:00:30.741Z,78.33
2022-08-05T01:02:59.854Z,77.88
2022-08-05T01:05:27.825Z,77.95
2022-08-05T01:08:41.990Z,77.94
2022-08-05T01:10:59.998Z,78.48
2022-08-05T01:13:57.588Z,78.36
2022-08-05T01:16:38.616Z,78.27
2022-08-05T01:19:30.381Z,78.38
2022-08-05T01:22:42.037Z,78.28
2022-08-05T01:25:39.891Z,78.12
2022-08-05T01:28:51.911Z,77.95
2022-08-05T01:31:33.716Z,77.79
2022-08-05T01:34:30.996Z,78.47
2022-08-05T01:37:25.147Z,78.72
2022-08-05T01:39:58.928Z,78.69
2022-08-05T01:42:28.247Z,78.61
2022-08-05T01:44:59.189Z,78.98
2022-08-05T01:47:39.307Z,78.66
2022-08-05T01:50:15.748Z,78.45
2022-08-05T01:52:49.762Z,78.95
2022-08-05T01:55:22.523Z,79.19
2022-08-05T01:58:13.575Z,79.06
2022-08-05T02:00:44.380Z,79.13
2022-08-05T02:03:31.253Z,79.48
2022-08-05T02:06:01.155Z,79.59
2022-08-05T02:08:32.237Z,79.97
2022-08-05T02:11:11.729Z,80.34
2022-08-05T02:14:02.740Z,80.17
2022-08-05T02:16:42.275Z,79.82
2022-08-05T02:19:24.643Z,79.65
2022-08-05T02:22:25.493Z,79.55
2022-08-05T02:25:03.955Z,79.31
2022-08-05T02:27:58.082Z,79.24
2022-08-05T02:30:26.792Z,79.41
2022-08-05T02:32:57.016Z,79.71
2022-08-05T02:35:28.244Z,79.69
2022-08-05T02:38:05.317Z,79.37
2022-08-05T02:40:41.173Z,79.59
2022-08-05T02:43:11.937Z,79.21
2022-08-05T02:45:52.276Z,79.43
2022-08-05T02:48:28.954Z,79.29
2022-08-05T02:51:00.807Z,79.23
2022-08-05T02:53:39.056Z,79.53
2022-08-05T02:56:09.534Z,79.42
2022-08-05T02:58:43.523Z,79.67
2022-08-05T03:01:14.967Z,79.28
2022-08-05T03:04:02.284Z,79.45
2022-08-05T03:06:55.155Z,79.32
2022-08-05T03:09:36.067Z,79.70
2022-08-05T03:12:04.905Z,79.16
2022-08-05T03:14:32.340Z,78.56
2022-08-05T03:17:00.261Z,78.55
2022-08-05T03:19:34.291Z,78.33
2022-08-05T03:22:05.135Z,78.04
2022-08-05T03:24:46.944Z,77.20
2022-08-05T03:27:15.929Z,77.23
2022-08-05T03:29:45.972Z,75.79
2022-08-05T03:32:31.423Z,75.49
2022-08-05T03:34:59.540Z,74.34
2022-08-05T03:37:28.040Z,73.60
2022-08-05T03:40:01.927Z,72.74
2022-08-05T03:42:32.855Z,72.60
2022-08-05T03:45:22.010Z,71.36
2022-08-05T03:47:56.814Z,69.67
2022-08-05T03:50:25.701Z,68.25
2022-08-05T03:55:00.365Z,68.49
2022-08-05T03:56:11.556Z,68.32
2022-08-05T03:58:44.990Z,66.28
2022-08-05T04:01:15.266Z,66.18
2022-08-05T04:04:09.019Z,65.66
2022-08-05T04:06:47.359Z,65.91
2022-08-05T04:09:16.056Z,64.83
2022-08-05T04:11:59.445Z,63.75
2022-08-05T04:14:30.192Z,62.38
2022-08-05T04:17:00.303Z,62.74
2022-08-05T04:19:28.820Z,62.00
2022-08-05T04:22:08.281Z,61.50
2022-08-05T04:24:52.682Z,60.62
2022-08-05T04:27:33.173Z,60.37
2022-08-05T04:30:10.142Z,60.03
2022-08-05T04:32:37.758Z,59.82
2022-08-05T04:35:06.860Z,58.88
2022-08-05T04:38:01.191Z,58.57
2022-08-05T04:40:34.282Z,57.33
2022-08-05T04:43:01.889Z,57.54
2022-08-05T04:45:48.267Z,57.66
2022-08-05T04:48:27.905Z,57.46
2022-08-05T04:51:03.138Z,56.21
2022-08-05T04:53:39.926Z,57.01
2022-08-05T04:56:32.790Z,55.69
2022-08-05T04:58:55.732Z,56.36
2022-08-05T05:01:33.790Z,55.07
2022-08-05T05:04:12.169Z,54.15
2022-08-05T05:06:44.700Z,54.58
2022-08-05T05:09:17.281Z,55.57
2022-08-05T05:11:54.416Z,57.10
2022-08-05T05:14:28.179Z,55.54
2022-08-05T05:17:01.047Z,56.03
2022-08-05T05:19:36.891Z,56.15
2022-08-05T05:22:24.282Z,55.62
2022-08-05T05:25:00.266Z,55.26
2022-08-05T05:27:44.152Z,53.28
2022-08-05T05:30:29.136Z,53.88
2022-08-05T05:33:00.415Z,54.08
2022-08-05T05:35:34.422Z,53.85
2022-08-05T05:38:09.419Z,51.86
2022-08-05T05:40:50.039Z,52.33
2022-08-05T05:43:22.366Z,53.45
2022-08-05T05:46:12.122Z,53.46
2022-08-05T05:48:44.048Z,54.00
2022-08-05T05:51:15.489Z,54.34
2022-08-05T05:53:58.058Z,54.85
2022-08-05T05:56:32.618Z,56.32
2022-08-05T05:59:05.292Z,56.90
2022-08-05T06:01:40.207Z,57.79
2022-08-05T06:04:25.701Z,58.39
2022-08-05T06:06:54.618Z,59.44
2022-08-05T06:09:26.489Z,60.37
2022-08-05T06:12:09.576Z,60.46
2022-08-05T06:14:36.911Z,61.52
2022-08-05T06:17:22.062Z,61.41
2022-08-05T06:19:57.140Z,61.95
2022-08-05T06:22:29.880Z,62.25
2022-08-05T06:25:01.153Z,62.52
2022-08-05T06:28:12.791Z,62.92
2022-08-05T06:30:38.303Z,62.96
2022-08-05T06:33:05.441Z,63.18
2022-08-05T06:36:05.813Z,62.60
2022-08-05T06:38:35.920Z,62.97
2022-08-05T06:41:05.382Z,62.91
2022-08-05T06:43:58.000Z,63.07
2022-08-05T06:46:30.371Z,62.87
2022-08-05T06:49:01.186Z,63.08
2022-08-05T06:51:30.979Z,63.11
2022-08-05T06:54:04.224Z,63.24
2022-08-05T06:56:34.318Z,63.06
2022-08-05T06:59:08.538Z,63.13
2022-08-05T07:01:37.053Z,62.91
2022-08-05T07:04:08.441Z,62.71
2022-08-05T07:06:37.673Z,62.17
2022-08-05T07:09:07.919Z,62.41
2022-08-05T07:11:37.044Z,61.81
2022-08-05T07:14:28.834Z,62.13
2022-08-05T07:18:00.755Z,61.07
2022-08-05T07:20:32.116Z,61.41
2022-08-05T07:22:38.743Z,60.27
2022-08-05T07:25:09.498Z,60.50
2022-08-05T07:27:57.585Z,61.34
2022-08-05T07:30:38.240Z,61.26
2022-08-05T07:33:21.147Z,60.40
2022-08-05T07:36:21.145Z,58.93
2022-08-05T07:38:49.170Z,59.54
2022-08-05T07:42:07.780Z,59.54
2022-08-05T07:44:18.519Z,59.26
2022-08-05T07:46:48.483Z,59.25
2022-08-05T07:49:22.980Z,60.10
2022-08-05T07:51:54.424Z,58.88
2022-08-05T07:54:47.554Z,59.09
2022-08-05T07:57:52.342Z,59.23
2022-08-05T08:00:11.471Z,59.23
2022-08-05T08:03:15.136Z,57.70
2022-08-05T08:05:30.798Z,57.75
2022-08-05T08:08:07.425Z,57.31
2022-08-05T08:10:40.137Z,56.84
2022-08-05T08:13:07.512Z,57.56
2022-08-05T08:16:49.781Z,56.54
2022-08-05T08:18:25.971Z,56.87
2022-08-05T08:21:01.950Z,57.26
2022-08-05T08:24:03.642Z,57.63
2022-08-05T08:26:26.599Z,56.29
2022-08-05T08:28:55.228Z,55.98
2022-08-05T08:31:26.913Z,54.33
2022-08-05T08:33:59.312Z,54.94
2022-08-05T08:36:47.349Z,55.75
2022-08-05T08:39:25.666Z,54.63
2022-08-05T08:41:59.945Z,53.42
2022-08-05T08:45:18.900Z,51.77
2022-08-05T08:48:05.785Z,50.55
2022-08-05T08:50:31.025Z,50.83
2022-08-05T08:53:12.287Z,50.99
2022-08-05T08:56:03.919Z,51.21
2022-08-05T08:58:43.019Z,50.91
2022-08-05T09:01:16.517Z,50.62
2022-08-05T09:03:54.421Z,50.55
2022-08-05T09:06:45.773Z,48.88
2022-08-05T09:09:17.875Z,46.72
2022-08-05T09:11:51.346Z,46.82
2022-08-05T09:17:40.008Z,47.77
2022-08-05T09:20:05.344Z,47.65
2022-08-05T09:23:07.844Z,47.14
2022-08-05T09:28:32.031Z,43.72
2022-08-05T09:31:23.283Z,40.83
2022-08-05T09:34:03.062Z,40.00
2022-08-05T09:36:54.916Z,39.38
2022-08-05T09:39:41.571Z,39.64
2022-08-05T09:42:28.902Z,41.01
2022-08-05T09:45:03.575Z,43.25
2022-08-05T09:47:55.431Z,45.61
2022-08-05T09:50:44.680Z,46.49
2022-08-05T09:53:22.707Z,47.64
2022-08-05T09:56:03.608Z,49.21
2022-08-05T09:58:32.229Z,49.02
2022-08-05T10:01:02.275Z,45.07
2022-08-05T10:03:58.904Z,42.49
2022-08-05T10:06:28.298Z,40.48
2022-08-05T10:09:45.337Z,36.79
2022-08-05T10:12:18.683Z,37.24
2022-08-05T10:15:20.486Z,38.51
2022-08-05T10:18:11.766Z,38.68
2022-08-05T10:20:47.703Z,39.43
2022-08-05T10:23:59.192Z,39.34
2022-08-05T10:26:51.686Z,39.21
2022-08-05T10:29:13.759Z,38.53
2022-08-05T10:32:54.813Z,39.31
2022-08-05T10:34:40.712Z,40.44
2022-08-05T10:37:08.473Z,40.85
2022-08-05T10:39:59.290Z,42.21
2022-08-05T10:42:34.083Z,44.08
2022-08-05T10:45:02.078Z,45.22
2022-08-05T10:48:30.011Z,43.88
2022-08-05T10:51:04.694Z,44.24
2022-08-05T10:54:01.686Z,44.45
2022-08-05T10:56:58.223Z,44.50
2022-08-05T11:00:03.676Z,43.10
2022-08-05T11:02:38.209Z,44.03
2022-08-05T11:11:52.350Z,43.09
2022-08-05T11:17:57.110Z,41.39
2022-08-05T11:20:33.341Z,42.12
2022-08-05T11:28:48.516Z,42.76
2022-08-05T11:31:57.234Z,44.19
2022-08-05T11:34:37.897Z,44.54
2022-08-05T11:38:14.259Z,44.78
2022-08-05T11:39:55.205Z,43.88
2022-08-05T11:42:29.776Z,42.39
2022-08-05T11:50:48.611Z,42.87
2022-08-05T11:53:16.793Z,43.02
2022-08-05T11:59:00.706Z,42.94
2022-08-05T12:02:29.905Z,43.26
2022-08-05T12:05:07.042Z,44.05
2022-08-05T12:08:08.727Z,44.39
2022-08-05T12:10:43.521Z,42.62
2022-08-05T12:13:18.731Z,43.48
2022-08-05T12:16:04.047Z,43.37
2022-08-05T12:18:42.655Z,43.61
2022-08-05T12:21:39.153Z,44.18
2022-08-05T12:24:09.880Z,45.75
2022-08-05T12:26:53.051Z,45.10
2022-08-05T12:29:24.636Z,45.06
2022-08-05T12:31:57.431Z,44.87
2022-08-05T12:34:28.933Z,44.58
2022-08-05T12:36:58.674Z,44.83
2022-08-05T12:39:28.324Z,45.60
2022-08-05T12:42:32.112Z,48.35
2022-08-05T12:45:08.906Z,52.62
2022-08-05T12:47:43.481Z,55.01
2022-08-05T12:50:26.292Z,57.48
2022-08-05T12:52:59.665Z,61.52
2022-08-05T12:55:32.744Z,64.38
2022-08-05T12:58:48.829Z,65.64
2022-08-05T13:02:05.767Z,66.80
2022-08-05T13:03:42.311Z,66.74
2022-08-05T13:06:16.086Z,67.34
2022-08-05T13:08:50.799Z,65.35
2022-08-05T13:12:01.025Z,64.95
2022-08-05T13:14:20.371Z,63.77
2022-08-05T13:17:00.495Z,62.40
2022-08-05T13:19:51.785Z,61.30
2022-08-05T13:22:28.074Z,60.74
2022-08-05T13:25:00.737Z,60.73
2022-08-05T13:27:39.227Z,61.80
2022-08-05T13:30:34.733Z,63.07
2022-08-05T13:33:01.550Z,63.11
2022-08-05T13:35:43.315Z,62.84
2022-08-05T13:38:28.500Z,60.61
2022-08-05T13:41:00.370Z,61.12
2022-08-05T13:43:45.511Z,62.84
2022-08-05T13:46:16.193Z,58.48
2022-08-05T13:48:57.090Z,57.51
2022-08-05T13:51:40.337Z,57.68
2022-08-05T13:54:12.509Z,57.72
2022-08-05T13:56:45.153Z,57.04
2022-08-05T13:59:24.408Z,57.15
2022-08-05T14:01:59.097Z,57.33
2022-08-05T14:05:00.621Z,57.13
2022-08-05T14:07:59.742Z,57.48
2022-08-05T14:10:30.847Z,58.79
2022-08-05T14:13:00.082Z,58.81
2022-08-05T14:16:05.641Z,59.48
2022-08-05T14:18:23.299Z,59.96
2022-08-05T14:20:54.800Z,58.57
2022-08-05T14:23:25.507Z,57.61
2022-08-05T14:25:57.976Z,57.93
2022-08-05T14:28:51.926Z,56.42
2022-08-05T14:31:54.350Z,56.34
2022-08-05T14:34:12.012Z,55.41
2022-08-05T14:36:39.681Z,56.24
2022-08-05T14:39:07.563Z,55.97
2022-08-05T14:42:02.427Z,56.02
2022-08-05T14:44:30.390Z,53.72
2022-08-05T14:46:57.867Z,52.82
2022-08-05T14:49:25.285Z,52.28
2022-08-05T14:52:21.850Z,51.63
2022-08-05T14:55:01.765Z,51.64
2022-08-05T14:57:33.918Z,50.50
2022-08-05T15:00:16.852Z,50.88
2022-08-05T15:02:48.341Z,50.86
2022-08-05T15:05:20.818Z,50.33
2022-08-05T15:08:12.250Z,49.11
2022-08-05T15:10:38.002Z,50.13
2022-08-05T15:13:10.058Z,50.46
2022-08-05T15:15:55.648Z,50.30
2022-08-05T15:18:23.737Z,50.80
2022-08-05T15:20:51.254Z,49.83
2022-08-05T15:23:19.520Z,49.35
2022-08-05T15:25:52.060Z,50.04
2022-08-05T15:31:03.585Z,51.19
2022-08-05T15:34:04.332Z,51.27
2022-08-05T15:36:24.442Z,51.12
2022-08-05T15:41:03.676Z,50.58
2022-08-05T15:41:55.409Z,49.76
2022-08-05T15:44:30.427Z,49.26
2022-08-05T15:47:04.365Z,49.08
2022-08-05T15:49:53.466Z,49.54
2022-08-05T15:52:53.790Z,49.12
2022-08-05T15:55:24.473Z,49.29
2022-08-05T15:58:01.095Z,49.17
2022-08-05T16:00:48.122Z,49.26
2022-08-05T16:03:20.937Z,49.44
2022-08-05T16:05:52.432Z,47.99
2022-08-05T16:08:20.257Z,48.28
2022-08-05T16:10:48.093Z,48.20
2022-08-05T16:13:23.507Z,48.08
2022-08-05T16:15:52.015Z,48.31
2022-08-05T16:18:19.645Z,48.56
2022-08-05T16:20:50.130Z,47.93
2022-08-05T16:23:19.322Z,48.56
2022-08-05T16:25:55.816Z,48.33
2022-08-05T16:28:25.363Z,47.92
2022-08-05T16:33:41.589Z,47.95
2022-08-05T16:36:10.421Z,48.26
2022-08-05T16:38:40.749Z,48.31
2022-08-05T16:42:11.940Z,48.05
2022-08-05T16:43:58.407Z,47.94
2022-08-05T16:46:26.847Z,48.18
2022-08-05T16:48:53.856Z,48.26
2022-08-05T16:51:24.266Z,48.25
2022-08-05T16:54:05.090Z,48.53
2022-08-05T16:56:41.480Z,48.98
2022-08-05T16:59:11.929Z,48.63
2022-08-05T17:01:54.588Z,49.20
2022-08-05T17:04:29.243Z,49.22
2022-08-05T17:07:01.828Z,49.15
2022-08-05T17:09:57.628Z,49.00
2022-08-05T17:12:22.674Z,49.73
2022-08-05T17:15:09.516Z,49.76
2022-08-05T17:17:57.942Z,50.51
2022-08-05T17:20:27.742Z,50.56
2022-08-05T17:23:00.725Z,50.67
2022-08-05T17:25:39.926Z,51.21
2022-08-05T17:28:09.205Z,51.87
2022-08-05T17:30:50.297Z,52.08
2022-08-05T17:33:20.311Z,52.58
2022-08-05T17:36:09.041Z,52.70
2022-08-05T17:38:35.015Z,53.16
2022-08-05T17:41:02.326Z,53.42
2022-08-05T17:43:50.615Z,52.94
2022-08-05T17:46:20.852Z,53.48
2022-08-05T17:48:48.576Z,53.72
2022-08-05T17:51:21.686Z,53.50
2022-08-05T17:53:54.572Z,53.79
2022-08-05T17:56:28.225Z,54.35
2022-08-05T17:58:56.529Z,53.96
2022-08-05T18:01:23.647Z,54.55
2022-08-05T18:04:04.038Z,54.62
2022-08-05T18:06:32.994Z,54.94
2022-08-05T18:09:03.781Z,55.02
2022-08-05T18:11:33.541Z,55.52
2022-08-05T18:14:04.313Z,55.45
2022-08-05T18:16:33.371Z,55.70
2022-08-05T18:19:00.632Z,55.93
2022-08-05T18:22:07.321Z,56.36
2022-08-05T18:24:15.115Z,57.06
2022-08-05T18:26:43.786Z,56.55
2022-08-05T18:29:11.786Z,56.50
2022-08-05T18:31:43.074Z,57.13
2022-08-05T18:34:12.214Z,56.80
2022-08-05T18:36:41.143Z,56.82
2022-08-05T18:39:22.201Z,57.45
2022-08-05T18:42:03.649Z,58.02
2022-08-05T18:44:35.557Z,58.44
2022-08-05T18:47:22.697Z,58.10
2022-08-05T18:50:12.251Z,58.62
2022-08-05T18:52:50.728Z,58.90
2022-08-05T18:55:18.963Z,59.18
2022-08-05T18:57:53.990Z,59.06
2022-08-05T19:00:29.509Z,59.52
2022-08-05T19:03:03.886Z,59.55
2022-08-05T19:06:12.871Z,59.59
2022-08-05T19:08:21.739Z,59.98
2022-08-05T19:10:51.927Z,58.94
2022-08-05T19:13:19.775Z,59.93
2022-08-05T19:15:58.828Z,59.92
2022-08-05T19:18:29.112Z,59.75
2022-08-05T19:20:59.797Z,59.91
2022-08-05T19:24:07.164Z,60.10
2022-08-05T19:26:14.928Z,60.20
2022-08-05T19:28:43.667Z,60.75
2022-08-05T19:31:15.003Z,60.93
2022-08-05T19:33:48.760Z,60.76
2022-08-05T19:36:29.283Z,60.87
2022-08-05T19:39:00.628Z,61.40
2022-08-05T19:41:58.410Z,61.17
2022-08-05T19:44:18.446Z,61.08
2022-08-05T19:46:45.858Z,61.11
2022-08-05T19:49:17.014Z,61.33
2022-08-05T19:52:05.097Z,61.11
2022-08-05T19:54:35.381Z,60.79
2022-08-05T19:57:09.142Z,61.09
2022-08-05T19:59:59.564Z,60.73
2022-08-05T20:02:27.950Z,60.71
2022-08-05T20:04:59.321Z,60.62
2022-08-05T20:07:47.277Z,60.54
2022-08-05T20:10:16.591Z,60.94
2022-08-05T20:12:47.718Z,60.93
2022-08-05T20:15:48.951Z,61.13
2022-08-05T20:18:32.742Z,61.07
2022-08-05T20:20:57.041Z,61.02
2022-08-05T20:23:44.511Z,61.65
2022-08-05T20:26:16.203Z,61.93
2022-08-05T20:28:48.195Z,63.02
2022-08-05T20:31:16.417Z,63.17
2022-08-05T20:33:45.205Z,63.25
2022-08-05T20:36:14.306Z,63.93
2022-08-05T20:38:54.051Z,64.36
2022-08-05T20:41:26.906Z,64.59
2022-08-05T20:43:58.829Z,64.76
2022-08-05T20:46:29.438Z,65.41
2022-08-05T20:48:57.456Z,65.16
2022-08-05T20:51:24.635Z,64.63
2022-08-05T20:53:56.913Z,64.37
2022-08-05T20:56:28.677Z,64.22
2022-08-05T20:59:11.153Z,64.93
2022-08-05T21:01:41.822Z,64.77
2022-08-05T21:04:10.675Z,64.65
2022-08-05T21:06:45.077Z,64.34
2022-08-05T21:09:14.521Z,64.52
2022-08-05T21:12:10.463Z,64.89
2022-08-05T21:14:35.153Z,65.10
2022-08-05T21:17:06.253Z,65.67
2022-08-05T21:19:46.694Z,66.54
2022-08-05T21:22:23.220Z,66.30
2022-08-05T21:24:52.356Z,66.78
2022-08-05T21:27:25.381Z,66.68
2022-08-05T21:29:58.324Z,66.49
2022-08-05T21:32:29.409Z,66.99
2022-08-05T21:35:16.717Z,67.20
2022-08-05T21:37:48.091Z,66.93
2022-08-05T21:40:23.252Z,67.04
2022-08-05T21:42:51.986Z,67.08
2022-08-05T21:45:24.767Z,67.23
2022-08-05T21:48:06.430Z,67.40
2022-08-05T21:50:36.692Z,67.97
2022-08-05T21:53:16.220Z,68.42
2022-08-05T21:56:05.423Z,68.63
2022-08-05T21:58:32.158Z,68.61
2022-08-05T22:00:59.940Z,68.51
2022-08-05T22:03:51.969Z,69.24
2022-08-05T22:06:16.408Z,68.79
2022-08-05T22:08:51.677Z,70.28
2022-08-05T22:11:34.807Z,70.61
2022-08-05T22:14:19.471Z,71.16
2022-08-05T22:17:02.968Z,71.45
2022-08-05T22:20:02.970Z,71.42
2022-08-05T22:22:26.820Z,71.64
2022-08-05T22:25:18.080Z,71.64
2022-08-05T22:28:09.000Z,72.08
2022-08-05T22:30:53.545Z,73.14
2022-08-05T22:33:57.973Z,73.50
2022-08-05T22:36:15.319Z,73.91
2022-08-05T22:38:48.569Z,73.73
2022-08-05T22:42:05.522Z,73.47
2022-08-05T22:44:08.445Z,73.38
2022-08-05T22:46:39.757Z,74.36
2022-08-05T22:50:18.504Z,74.04
2022-08-05T22:52:05.586Z,75.29
2022-08-05T22:54:34.246Z,75.85
2022-08-05T22:57:01.339Z,75.59
2022-08-05T22:59:43.784Z,75.73
2022-08-05T23:02:17.240Z,75.81
2022-08-05T23:04:51.356Z,76.40
2022-08-05T23:07:23.385Z,76.25
2022-08-05T23:09:57.610Z,76.56
2022-08-05T23:12:32.445Z,76.42
2022-08-05T23:15:08.445Z,76.45
2022-08-05T23:18:00.118Z,76.47
2022-08-05T23:20:25.107Z,77.04
2022-08-05T23:22:55.940Z,77.04
2022-08-05T23:25:52.523Z,77.44
2022-08-05T23:28:12.368Z,78.11
2022-08-05T23:30:43.812Z,77.74
2022-08-05T23:33:25.688Z,77.88
2022-08-05T23:36:10.215Z,77.76
2022-08-05T23:38:38.398Z,78.02
2022-08-05T23:41:06.362Z,78.27
2022-08-05T23:43:37.220Z,78.62
2022-08-05T23:46:22.091Z,78.51
2022-08-05T23:49:00.277Z,78.80
2022-08-05T23:51:54.354Z,78.45
2022-08-05T23:54:26.653Z,78.08
2022-08-05T23:57:04.172Z,77.65
